Time;durP1;ratioP1;P1;durP2;ratioP2;P2;SDS_P1;SDS_P2;PMS_P1;PMS_P2;Temp;Humidity;BMP_temperature;BMP_pressure;BME280_temperature;BME280_humidity;BME280_pressure;Samples;Min_cycle;Max_cycle;Signal;HPM_P1;HPM_P2
2023/12/05 00:00:22;;;;;;;1.70;1.60;;;-1.20;99.90;;;;;;4424081;32;20066;-59
2023/12/05 00:02:47;;;;;;;3.30;2.33;;;-1.20;99.90;;;;;;4422218;32;20089;-59
2023/12/05 00:05:13;;;;;;;1.33;1.25;;;-1.20;99.90;;;;;;4424498;32;20058;-59
2023/12/05 00:07:39;;;;;;;0.80;0.80;;;-1.20;99.90;;;;;;4423237;32;20093;-57
2023/12/05 00:10:05;;;;;;;0.73;0.73;;;-1.30;99.90;;;;;;4424968;32;20069;-58
2023/12/05 00:12:30;;;;;;;0.68;0.68;;;-1.20;99.90;;;;;;4419027;32;20062;-59
2023/12/05 00:14:56;;;;;;;1.33;1.23;;;-1.20;99.90;;;;;;4420067;32;20560;-59
2023/12/05 00:17:21;;;;;;;1.35;1.25;;;-1.20;99.90;;;;;;4401907;32;20076;-59
2023/12/05 00:19:47;;;;;;;1.42;1.33;;;-1.10;99.90;;;;;;4424946;32;20073;-58
2023/12/05 00:22:12;;;;;;;1.12;1.02;;;-1.10;99.90;;;;;;4421649;32;20073;-59
2023/12/05 00:24:38;;;;;;;0.90;0.85;;;-1.10;99.90;;;;;;4407457;32;20090;-59
2023/12/05 00:27:03;;;;;;;0.70;0.70;;;-1.20;99.90;;;;;;4427347;32;20203;-58
2023/12/05 00:29:29;;;;;;;0.50;0.50;;;-1.10;99.90;;;;;;4414253;32;20089;-60
2023/12/05 00:31:54;;;;;;;2.30;1.35;;;-1.10;99.90;;;;;;4411816;32;20114;-55
2023/12/05 00:34:20;;;;;;;3.70;2.03;;;-1.00;99.90;;;;;;4413637;32;20072;-58
2023/12/05 00:36:45;;;;;;;3.15;2.17;;;-1.10;99.90;;;;;;4417213;32;20911;-58
2023/12/05 00:39:10;;;;;;;0.98;0.98;;;-1.10;99.90;;;;;;4402275;32;20137;-60
2023/12/05 00:41:36;;;;;;;3.87;3.30;;;-1.20;99.90;;;;;;4397977;32;20545;-60
2023/12/05 00:44:01;;;;;;;5.95;2.05;;;-1.20;99.90;;;;;;4420726;32;20153;-57
2023/12/05 00:46:27;;;;;;;1.17;1.02;;;-1.20;99.90;;;;;;4421174;32;20132;-59
2023/12/05 00:48:53;;;;;;;2.33;1.67;;;-1.10;99.90;;;;;;4417745;32;20078;-59
2023/12/05 00:51:18;;;;;;;2.33;1.60;;;-1.10;99.90;;;;;;4407949;32;20082;-59
2023/12/05 00:53:44;;;;;;;1.58;1.48;;;-1.10;99.90;;;;;;4428496;32;20082;-58
2023/12/05 00:56:11;;;;;;;1.27;1.17;;;-1.10;99.90;;;;;;4429725;32;20077;-59
2023/12/05 00:58:36;;;;;;;0.82;0.82;;;-1.10;99.90;;;;;;4429918;32;20089;-59
2023/12/05 01:01:02;;;;;;;1.05;1.05;;;-1.10;99.90;;;;;;4428277;32;20065;-59
2023/12/05 01:03:28;;;;;;;3.95;1.90;;;-1.00;99.90;;;;;;4430538;32;20155;-58
2023/12/05 01:05:53;;;;;;;0.77;0.77;;;-1.00;99.90;;;;;;4429452;32;20085;-61
2023/12/05 01:08:19;;;;;;;0.50;0.50;;;-1.00;99.90;;;;;;4430569;32;20066;-59
2023/12/05 01:10:44;;;;;;;0.95;0.95;;;-1.00;99.90;;;;;;4429681;32;20084;-60
2023/12/05 01:13:10;;;;;;;0.95;0.95;;;-1.00;99.90;;;;;;4432103;32;20458;-60
2023/12/05 01:15:36;;;;;;;3.60;1.60;;;-1.00;99.90;;;;;;4430152;32;20124;-59
2023/12/05 01:18:02;;;;;;;0.80;0.80;;;-1.00;99.90;;;;;;4428829;32;20078;-59
2023/12/05 01:20:28;;;;;;;1.95;1.67;;;-1.00;99.90;;;;;;4428193;32;20529;-59
2023/12/05 01:22:53;;;;;;;1.08;0.85;;;-1.10;99.90;;;;;;4431651;32;20058;-59
2023/12/05 01:25:19;;;;;;;0.95;0.88;;;-1.00;99.90;;;;;;4432123;32;20081;-60
2023/12/05 01:27:44;;;;;;;2.62;1.15;;;-1.00;99.90;;;;;;4429880;32;20135;-58
2023/12/05 01:30:10;;;;;;;3.08;1.50;;;-1.00;99.90;;;;;;4428918;32;20073;-59
2023/12/05 01:32:35;;;;;;;0.55;0.55;;;-1.00;99.90;;;;;;4429638;32;20159;-60
2023/12/05 01:35:01;;;;;;;2.12;1.85;;;-1.00;99.90;;;;;;4429045;32;20061;-59
2023/12/05 01:37:26;;;;;;;5.60;2.87;;;-1.10;99.90;;;;;;4427858;32;20073;-59
2023/12/05 01:39:52;;;;;;;1.73;1.60;;;-1.10;99.90;;;;;;4430746;32;20484;-57
2023/12/05 01:42:17;;;;;;;0.85;0.85;;;-1.10;99.90;;;;;;4425700;32;20078;-57
2023/12/05 01:44:43;;;;;;;2.85;2.30;;;-1.00;99.90;;;;;;4427116;32;20086;-59
2023/12/05 01:47:10;;;;;;;2.92;1.40;;;-1.00;99.90;;;;;;4431206;32;20798;-60
2023/12/05 01:49:36;;;;;;;0.93;0.93;;;-1.00;99.90;;;;;;4427677;32;20081;-58
2023/12/05 01:52:02;;;;;;;3.80;2.53;;;-1.00;99.90;;;;;;4428332;32;20097;-58
2023/12/05 01:54:29;;;;;;;0.93;0.93;;;-1.00;99.90;;;;;;4428689;32;20077;-60
2023/12/05 01:56:56;;;;;;;0.80;0.80;;;-1.00;99.90;;;;;;4429211;32;20065;-58
2023/12/05 01:59:22;;;;;;;0.98;0.98;;;-1.00;99.90;;;;;;4427037;32;20078;-58
2023/12/05 02:01:49;;;;;;;0.85;0.85;;;-1.10;99.90;;;;;;4428337;32;20132;-57
2023/12/05 02:04:15;;;;;;;1.42;1.33;;;-1.00;99.90;;;;;;4427074;32;20065;-58
2023/12/05 02:06:41;;;;;;;1.58;1.40;;;-0.90;99.90;;;;;;4427062;32;20537;-57
2023/12/05 02:09:09;;;;;;;1.27;1.27;;;-1.00;99.90;;;;;;4425630;32;20101;-58
2023/12/05 02:11:35;;;;;;;1.17;1.15;;;-0.90;99.90;;;;;;4427491;32;20089;-58
2023/12/05 02:14:02;;;;;;;0.73;0.73;;;-1.00;99.90;;;;;;4426630;32;20085;-59
2023/12/05 02:16:37;;;;;;;2.83;2.05;;;-0.90;99.90;;;;;;4429879;32;20057;-59
2023/12/05 02:19:31;;;;;;;0.40;0.40;;;-0.90;99.90;;;;;;4437200;32;20076;-59
2023/12/05 02:22:00;;;;;;;2.70;1.00;;;-0.90;99.90;;;;;;4428018;32;20073;-57
2023/12/05 02:24:40;;;;;;;1.15;1.05;;;-1.00;99.90;;;;;;4427875;32;20576;-56
2023/12/05 02:27:12;;;;;;;8.27;2.35;;;-1.00;99.90;;;;;;4419100;32;20121;-61
2023/12/05 02:29:48;;;;;;;0.40;0.40;;;-1.10;99.90;;;;;;4412118;32;20540;-59
2023/12/05 02:32:14;;;;;;;1.00;0.98;;;-0.90;99.90;;;;;;4429704;32;20132;-59
2023/12/05 02:34:39;;;;;;;0.75;0.75;;;-1.00;99.90;;;;;;4431728;32;20109;-59
2023/12/05 02:37:28;;;;;;;2.10;1.75;;;-0.90;99.90;;;;;;4427583;32;20081;-60
2023/12/05 02:40:07;;;;;;;0.68;0.68;;;-1.00;99.90;;;;;;4429944;32;21333;-58
2023/12/05 02:42:33;;;;;;;10.63;2.47;;;-0.90;99.90;;;;;;4427765;32;20089;-59
2023/12/05 02:45:01;;;;;;;3.95;3.17;;;-1.00;99.90;;;;;;4431998;32;20072;-59
2023/12/05 02:47:30;;;;;;;1.75;1.17;;;-0.90;99.90;;;;;;4415623;32;20073;-60
2023/12/05 02:49:56;;;;;;;11.07;3.83;;;-0.90;99.90;;;;;;4429965;32;20577;-58
2023/12/05 02:52:21;;;;;;;1.05;1.05;;;-0.90;99.90;;;;;;4429800;32;20093;-58
2023/12/05 02:54:47;;;;;;;1.87;1.52;;;-0.90;99.90;;;;;;4418215;32;20101;-59
2023/12/05 02:57:12;;;;;;;0.82;0.82;;;-0.80;99.90;;;;;;4430075;32;20429;-58
2023/12/05 02:59:38;;;;;;;1.37;1.27;;;-0.70;99.90;;;;;;4427017;32;20077;-59
2023/12/05 03:02:03;;;;;;;0.60;0.60;;;-0.70;99.90;;;;;;4428438;32;20105;-58
2023/12/05 03:04:30;;;;;;;1.55;1.45;;;-0.70;99.90;;;;;;4429861;32;20080;-56
2023/12/05 03:06:55;;;;;;;0.40;0.40;;;-0.70;99.90;;;;;;4426833;32;20517;-58
2023/12/05 03:09:21;;;;;;;0.93;0.93;;;-0.80;99.90;;;;;;4427550;32;20065;-58
2023/12/05 03:11:46;;;;;;;2.70;1.65;;;-0.80;99.90;;;;;;4429496;32;20076;-60
2023/12/05 03:14:13;;;;;;;3.53;1.70;;;-0.80;99.90;;;;;;4421333;32;20057;-60
2023/12/05 03:16:38;;;;;;;0.93;0.93;;;-0.90;99.90;;;;;;4427889;32;20089;-57
2023/12/05 03:19:04;;;;;;;2.08;1.37;;;-0.90;99.90;;;;;;4428878;32;20081;-59
2023/12/05 03:21:29;;;;;;;0.70;0.70;;;-0.90;99.90;;;;;;4430922;32;20073;-58
2023/12/05 03:23:55;;;;;;;5.72;2.15;;;-0.80;99.90;;;;;;4416934;32;20065;-59
2023/12/05 03:26:22;;;;;;;4.10;2.25;;;-0.80;99.90;;;;;;4432845;32;20099;-58
2023/12/05 03:28:48;;;;;;;0.70;0.70;;;-0.80;99.90;;;;;;4414677;32;20093;-59
2023/12/05 03:31:14;;;;;;;0.70;0.70;;;-0.80;99.90;;;;;;4411399;32;20439;-58
2023/12/05 03:33:40;;;;;;;1.75;1.50;;;-0.80;99.90;;;;;;4427762;32;20168;-58
2023/12/05 03:36:06;;;;;;;1.42;1.33;;;-0.80;99.90;;;;;;4414318;32;20199;-57
2023/12/05 03:38:31;;;;;;;2.12;1.95;;;-0.80;99.90;;;;;;4430831;32;20069;-59
2023/12/05 03:40:57;;;;;;;0.50;0.50;;;-0.70;99.90;;;;;;4427224;32;20085;-57
2023/12/05 03:43:23;;;;;;;3.08;1.75;;;-0.80;99.90;;;;;;4404640;32;20077;-59
2023/12/05 03:45:48;;;;;;;0.43;0.43;;;-0.70;99.90;;;;;;4432923;32;20770;-58
2023/12/05 03:48:14;;;;;;;0.85;0.70;;;-0.90;99.90;;;;;;4427698;32;20196;-58
2023/12/05 03:50:39;;;;;;;0.85;0.85;;;-0.80;99.90;;;;;;4428483;32;20085;-59
2023/12/05 03:53:05;;;;;;;20.00;3.20;;;-0.80;99.90;;;;;;4417773;32;20085;-60
2023/12/05 03:55:33;;;;;;;1.25;1.23;;;-0.80;99.90;;;;;;4417085;32;20678;-59
2023/12/05 03:57:58;;;;;;;1.17;0.98;;;-0.80;99.90;;;;;;4431625;32;20077;-58
2023/12/05 04:00:24;;;;;;;1.55;1.45;;;-0.70;99.90;;;;;;4430454;32;20131;-59
2023/12/05 04:02:49;;;;;;;0.60;0.60;;;-0.80;99.90;;;;;;4430321;32;20081;-59
2023/12/05 04:05:15;;;;;;;0.75;0.75;;;-0.80;99.90;;;;;;4431459;32;20062;-56
2023/12/05 04:07:41;;;;;;;0.88;0.88;;;-0.70;99.90;;;;;;4432134;32;21129;-57
2023/12/05 04:10:08;;;;;;;1.00;1.00;;;-0.70;99.90;;;;;;4433214;32;20077;-59
2023/12/05 04:12:34;;;;;;;2.12;1.77;;;-0.70;99.90;;;;;;4417532;32;20326;-59
2023/12/05 04:14:59;;;;;;;0.88;0.88;;;-0.70;99.90;;;;;;4431257;32;20103;-59
2023/12/05 04:17:25;;;;;;;2.08;1.45;;;-0.80;99.90;;;;;;4427030;32;20106;-55
2023/12/05 04:19:50;;;;;;;1.05;1.05;;;-0.70;99.90;;;;;;4431153;32;20552;-59
2023/12/05 04:22:16;;;;;;;1.33;1.23;;;-0.70;99.90;;;;;;4423048;32;20149;-60
2023/12/05 04:24:41;;;;;;;2.60;1.48;;;-0.60;99.90;;;;;;4429041;32;20081;-57
2023/12/05 04:27:07;;;;;;;0.93;0.93;;;-0.60;99.90;;;;;;4428446;32;20508;-59
2023/12/05 04:29:32;;;;;;;1.52;1.17;;;-0.60;99.90;;;;;;4414587;32;20551;-57
2023/12/05 04:31:59;;;;;;;1.42;1.23;;;-0.60;99.90;;;;;;4414090;32;20070;-60
2023/12/05 04:34:24;;;;;;;2.33;1.70;;;-0.60;99.90;;;;;;4427139;32;20077;-59
2023/12/05 04:36:50;;;;;;;21.95;3.80;;;-0.60;99.90;;;;;;4415463;32;20394;-58
2023/12/05 04:39:16;;;;;;;1.12;1.10;;;-0.70;99.90;;;;;;4432735;32;20544;-59
2023/12/05 04:41:42;;;;;;;1.02;0.77;;;-0.70;99.90;;;;;;4417554;32;20096;-57
2023/12/05 04:44:07;;;;;;;1.45;1.23;;;-0.60;99.90;;;;;;4428082;32;20137;-58
2023/12/05 04:46:37;;;;;;;0.88;0.85;;;-0.60;99.90;;;;;;4427558;32;20149;-58
2023/12/05 04:49:03;;;;;;;0.88;0.88;;;-0.60;99.90;;;;;;4414033;32;20181;-57
2023/12/05 04:51:28;;;;;;;0.80;0.80;;;-0.70;99.90;;;;;;4427532;32;20124;-60
2023/12/05 04:53:54;;;;;;;4.28;2.85;;;-0.70;99.90;;;;;;4429147;32;20057;-59
2023/12/05 04:56:19;;;;;;;5.53;1.67;;;-0.70;99.90;;;;;;4416404;32;20086;-58
2023/12/05 04:58:45;;;;;;;4.32;1.45;;;-0.70;99.90;;;;;;4430183;32;20109;-56
2023/12/05 05:01:10;;;;;;;2.80;2.35;;;-0.60;99.90;;;;;;4430865;32;20073;-57
2023/12/05 05:03:36;;;;;;;2.22;1.62;;;-0.70;99.90;;;;;;4431455;32;20069;-59
2023/12/05 05:06:01;;;;;;;0.98;0.98;;;-0.70;99.90;;;;;;4429578;32;20086;-58
2023/12/05 05:08:27;;;;;;;2.28;1.87;;;-0.80;99.90;;;;;;4427535;32;20545;-60
2023/12/05 05:10:52;;;;;;;0.60;0.60;;;-0.70;99.90;;;;;;4412275;32;20091;-58
2023/12/05 05:13:19;;;;;;;0.90;0.90;;;-0.60;99.90;;;;;;4428824;32;20069;-57
2023/12/05 05:15:44;;;;;;;1.23;1.12;;;-0.70;99.90;;;;;;4427778;32;20098;-59
2023/12/05 05:18:10;;;;;;;0.88;0.88;;;-0.60;99.90;;;;;;4430263;32;20366;-59
2023/12/05 05:20:35;;;;;;;0.60;0.60;;;-0.70;99.90;;;;;;4414314;32;20136;-59
2023/12/05 05:23:01;;;;;;;0.50;0.50;;;-0.60;99.90;;;;;;4425871;32;20061;-59
2023/12/05 05:25:26;;;;;;;11.30;2.03;;;-0.60;99.90;;;;;;4428117;32;20148;-59
2023/12/05 05:27:52;;;;;;;0.95;0.95;;;-0.50;99.90;;;;;;4429159;32;20097;-60
2023/12/05 05:30:17;;;;;;;5.97;1.95;;;-0.60;99.90;;;;;;4429077;32;20060;-57
2023/12/05 05:32:43;;;;;;;2.12;1.15;;;-0.60;99.90;;;;;;4428953;32;20069;-57
2023/12/05 05:35:09;;;;;;;4.15;1.90;;;-0.50;99.90;;;;;;4427364;32;20077;-60
2023/12/05 05:37:34;;;;;;;1.25;1.17;;;-0.60;99.90;;;;;;4428190;32;20119;-56
2023/12/05 05:40:00;;;;;;;1.50;1.40;;;-0.60;99.90;;;;;;4427597;32;20997;-58
2023/12/05 05:42:25;;;;;;;3.10;1.30;;;-0.60;99.90;;;;;;4431204;32;20081;-58
2023/12/05 05:44:51;;;;;;;6.55;2.47;;;-0.50;99.90;;;;;;4430084;32;20473;-56
2023/12/05 05:47:16;;;;;;;1.17;1.08;;;-0.50;99.90;;;;;;4428987;32;20069;-60
2023/12/05 05:49:43;;;;;;;1.33;1.23;;;-0.50;99.90;;;;;;4432284;32;20082;-59
2023/12/05 05:52:08;;;;;;;5.35;2.47;;;-0.50;99.90;;;;;;4413413;32;20077;-58
2023/12/05 05:54:34;;;;;;;0.90;0.77;;;-0.50;99.90;;;;;;4430379;32;20081;-56
2023/12/05 05:56:59;;;;;;;1.05;1.05;;;-0.40;99.90;;;;;;4426197;32;21190;-58
2023/12/05 05:59:24;;;;;;;1.30;1.20;;;-0.40;99.90;;;;;;4427889;32;20140;-57
2023/12/05 06:01:50;;;;;;;1.35;1.25;;;-0.40;99.90;;;;;;4427631;32;20053;-58
2023/12/05 06:04:15;;;;;;;0.82;0.82;;;-0.40;99.90;;;;;;4418475;32;20132;-56
2023/12/05 06:06:41;;;;;;;0.43;0.43;;;-0.40;99.90;;;;;;4416947;32;21332;-60
2023/12/05 06:09:06;;;;;;;1.35;1.25;;;-0.40;99.90;;;;;;4412062;32;20102;-56
2023/12/05 06:11:32;;;;;;;3.20;2.12;;;-0.40;99.90;;;;;;4426794;32;20566;-57
2023/12/05 06:13:57;;;;;;;2.75;1.58;;;-0.30;99.90;;;;;;4415104;32;20077;-59
2023/12/05 06:16:23;;;;;;;12.85;2.05;;;-0.30;99.90;;;;;;4427442;32;20128;-58
2023/12/05 06:18:48;;;;;;;0.77;0.77;;;-0.30;99.90;;;;;;4410989;32;20497;-57
2023/12/05 06:21:14;;;;;;;2.40;1.98;;;-0.30;99.90;;;;;;4418776;32;20151;-60
2023/12/05 06:23:40;;;;;;;1.62;1.52;;;-0.30;99.90;;;;;;4425475;32;20095;-59
2023/12/05 06:26:05;;;;;;;1.02;0.98;;;-0.30;99.90;;;;;;4410340;32;20156;-58
2023/12/05 06:28:31;;;;;;;1.40;1.35;;;-0.40;99.90;;;;;;4417296;32;20428;-59
2023/12/05 06:30:57;;;;;;;0.80;0.80;;;-0.40;99.90;;;;;;4422959;32;20073;-58
2023/12/05 06:33:23;;;;;;;13.45;2.92;;;-0.40;99.90;;;;;;4414976;32;20226;-58
2023/12/05 06:35:48;;;;;;;2.67;1.50;;;-0.30;99.90;;;;;;4419446;32;20101;-55
2023/12/05 06:38:14;;;;;;;0.90;0.90;;;-0.30;99.90;;;;;;4424412;32;20116;-58
2023/12/05 06:40:40;;;;;;;1.05;1.05;;;-0.40;99.90;;;;;;4411963;32;20334;-59
2023/12/05 06:43:07;;;;;;;5.57;2.00;;;-0.40;99.90;;;;;;4423268;32;20086;-59
2023/12/05 06:45:34;;;;;;;1.65;1.37;;;-0.40;99.90;;;;;;4420736;32;20504;-56
2023/12/05 06:48:00;;;;;;;1.95;1.25;;;-0.40;99.90;;;;;;4418650;32;20093;-58
2023/12/05 06:50:26;;;;;;;0.75;0.75;;;-0.40;99.90;;;;;;4415925;32;20068;-56
2023/12/05 06:52:51;;;;;;;1.25;1.15;;;-0.30;99.90;;;;;;4415341;32;20093;-59
2023/12/05 06:55:17;;;;;;;1.87;1.02;;;-0.20;99.90;;;;;;4412044;32;20140;-58
2023/12/05 06:57:43;;;;;;;1.45;1.35;;;-0.30;99.90;;;;;;4397061;32;20617;-58
2023/12/05 07:02:35;;;;;;;0.90;0.82;;;-0.30;99.90;;;;;;4412245;32;20647;-59
2023/12/05 07:05:04;;;;;;;0.68;0.68;;;-0.30;99.90;;;;;;4402308;32;20133;-58
2023/12/05 07:07:30;;;;;;;1.15;1.05;;;-0.30;99.90;;;;;;4398426;32;20640;-58
2023/12/05 07:09:55;;;;;;;3.50;2.30;;;-0.40;99.90;;;;;;4384521;32;21069;-59
2023/12/05 07:12:21;;;;;;;0.68;0.68;;;-0.30;99.90;;;;;;4394894;32;20117;-56
2023/12/05 07:14:46;;;;;;;2.55;2.17;;;-0.10;99.90;;;;;;4394960;32;20507;-58
2023/12/05 07:17:12;;;;;;;0.60;0.60;;;-0.20;99.90;;;;;;4405015;32;20073;-58
2023/12/05 07:19:37;;;;;;;0.73;0.73;;;-0.20;99.90;;;;;;4406897;32;20081;-57
2023/12/05 07:22:03;;;;;;;1.92;1.55;;;-0.20;99.90;;;;;;4410372;32;20331;-59
2023/12/05 07:24:29;;;;;;;0.55;0.55;;;-0.20;99.90;;;;;;4396526;32;20121;-58
2023/12/05 07:26:56;;;;;;;0.90;0.90;;;0.00;99.90;;;;;;4406631;32;20195;-60
2023/12/05 07:29:21;;;;;;;0.50;0.50;;;0.00;99.90;;;;;;4390837;32;20235;-56
2023/12/05 07:31:46;;;;;;;2.28;1.75;;;-0.10;99.90;;;;;;4409092;32;20525;-55
2023/12/05 07:34:12;;;;;;;0.88;0.88;;;-0.10;99.90;;;;;;4401485;32;20105;-57
2023/12/05 07:36:40;;;;;;;0.52;0.52;;;-0.10;99.90;;;;;;4403166;32;20073;-59
2023/12/05 07:39:06;;;;;;;1.12;1.02;;;-0.10;99.90;;;;;;4389578;32;20167;-58
2023/12/05 07:41:32;;;;;;;8.43;3.22;;;-0.10;99.90;;;;;;4406931;32;20159;-57
2023/12/05 07:43:57;;;;;;;1.00;0.98;;;-0.10;99.90;;;;;;4408605;32;20097;-60
2023/12/05 07:46:23;;;;;;;2.17;1.17;;;0.00;99.90;;;;;;4406895;32;20346;-60
2023/12/05 07:48:49;;;;;;;0.60;0.60;;;0.00;99.90;;;;;;4384754;32;21070;-56
2023/12/05 07:51:17;;;;;;;1.60;1.23;;;0.00;99.90;;;;;;4388809;32;20093;-57
2023/12/05 07:53:43;;;;;;;1.08;1.08;;;0.10;99.90;;;;;;4410204;32;20106;-57
2023/12/05 07:56:09;;;;;;;0.62;0.62;;;0.00;99.90;;;;;;4409537;32;20123;-58
2023/12/05 07:58:35;;;;;;;2.47;0.82;;;0.20;99.90;;;;;;4406756;32;20073;-59
2023/12/05 08:01:00;;;;;;;2.37;1.62;;;0.20;99.90;;;;;;4403710;32;20094;-56
2023/12/05 08:03:26;;;;;;;1.55;1.45;;;0.20;99.90;;;;;;4407406;32;20077;-58
2023/12/05 08:05:52;;;;;;;0.60;0.60;;;0.20;99.90;;;;;;4405761;32;20421;-59
2023/12/05 08:08:17;;;;;;;2.12;1.08;;;0.20;99.90;;;;;;4413463;32;20157;-57
2023/12/05 08:10:43;;;;;;;1.40;1.30;;;0.20;99.90;;;;;;4413901;32;26904;-58
2023/12/05 08:13:08;;;;;;;2.65;1.58;;;0.20;99.90;;;;;;4413987;32;20121;-58
2023/12/05 08:15:34;;;;;;;0.75;0.75;;;0.30;99.90;;;;;;4383444;32;20077;-59
2023/12/05 08:17:59;;;;;;;3.50;2.00;;;0.40;99.90;;;;;;4397910;32;20105;-56
2023/12/05 08:20:26;;;;;;;3.60;1.65;;;0.30;99.90;;;;;;4415819;32;20384;-57
2023/12/05 08:22:51;;;;;;;1.35;1.17;;;0.30;99.90;;;;;;4400814;32;20420;-57
2023/12/05 08:25:17;;;;;;;1.25;1.15;;;0.20;99.90;;;;;;4414564;32;20089;-59
2023/12/05 08:27:42;;;;;;;1.25;1.15;;;0.30;99.90;;;;;;4408560;32;20156;-58
2023/12/05 08:30:08;;;;;;;1.55;1.45;;;0.30;99.90;;;;;;4410339;32;20074;-59
2023/12/05 08:32:34;;;;;;;0.82;0.82;;;0.30;99.90;;;;;;4395317;32;20497;-57
2023/12/05 08:34:59;;;;;;;3.53;1.15;;;0.30;99.90;;;;;;4401440;32;20138;-57
2023/12/05 08:37:25;;;;;;;5.07;2.08;;;0.30;99.90;;;;;;4407691;32;20109;-59
2023/12/05 08:39:50;;;;;;;0.60;0.60;;;0.40;99.90;;;;;;4417244;32;20078;-57
2023/12/05 08:42:16;;;;;;;1.37;1.12;;;0.30;99.90;;;;;;4412649;32;20065;-56
2023/12/05 08:44:42;;;;;;;3.03;1.87;;;0.40;99.90;;;;;;4409879;32;20077;-59
2023/12/05 08:47:08;;;;;;;0.80;0.80;;;0.40;99.90;;;;;;4404142;32;20178;-60
2023/12/05 08:49:33;;;;;;;0.70;0.70;;;0.40;99.90;;;;;;4411579;32;20183;-56
2023/12/05 08:51:59;;;;;;;0.45;0.45;;;0.30;99.90;;;;;;4388757;32;20113;-57
2023/12/05 08:54:24;;;;;;;0.95;0.95;;;0.30;99.90;;;;;;4401423;32;20069;-58
2023/12/05 08:56:50;;;;;;;0.82;0.82;;;0.40;99.90;;;;;;4401169;32;20081;-57
2023/12/05 08:59:16;;;;;;;1.33;1.25;;;0.40;99.90;;;;;;4390313;32;20093;-58
2023/12/05 09:04:08;;;;;;;0.73;0.73;;;0.60;99.90;;;;;;4407167;32;21079;-58
2023/12/05 09:06:33;;;;;;;1.42;1.23;;;0.50;99.90;;;;;;4380097;32;20080;-59
2023/12/05 09:08:59;;;;;;;0.60;0.60;;;0.50;99.90;;;;;;4398322;32;20185;-56
2023/12/05 09:11:24;;;;;;;1.40;0.80;;;0.60;99.90;;;;;;4405864;32;20169;-55
2023/12/05 09:13:50;;;;;;;2.35;1.58;;;0.50;99.90;;;;;;4413789;32;20284;-58
2023/12/05 09:16:15;;;;;;;2.65;1.90;;;0.60;99.90;;;;;;4404021;32;20546;-57
2023/12/05 09:18:41;;;;;;;0.90;0.90;;;0.60;99.90;;;;;;4401801;32;20454;-56
2023/12/05 09:21:08;;;;;;;1.27;1.23;;;0.50;99.90;;;;;;4394460;32;20810;-60
2023/12/05 09:23:33;;;;;;;3.03;1.45;;;0.60;99.90;;;;;;4400799;32;20097;-59
2023/12/05 09:25:59;;;;;;;0.80;0.80;;;0.60;99.90;;;;;;4403221;32;20184;-59
2023/12/05 09:28:24;;;;;;;1.27;1.17;;;0.50;99.90;;;;;;4405217;32;20070;-60
2023/12/05 09:30:50;;;;;;;0.60;0.60;;;0.50;99.90;;;;;;4396379;32;20093;-57
2023/12/05 09:33:15;;;;;;;0.93;0.93;;;0.40;99.90;;;;;;4405752;32;20065;-59
2023/12/05 09:35:41;;;;;;;3.95;2.70;;;0.50;99.90;;;;;;4402569;32;20084;-58
2023/12/05 09:38:07;;;;;;;1.15;1.10;;;0.50;99.90;;;;;;4399819;32;20073;-58
2023/12/05 09:40:33;;;;;;;0.77;0.77;;;0.50;99.90;;;;;;4398994;32;20675;-59
2023/12/05 09:43:00;;;;;;;1.45;1.35;;;0.60;99.90;;;;;;4398171;32;21247;-59
2023/12/05 09:45:33;;;;;;;1.87;1.35;;;0.60;99.90;;;;;;4397916;32;20092;-59
2023/12/05 09:48:00;;;;;;;2.10;1.60;;;0.70;99.90;;;;;;4406264;32;21001;-58
2023/12/05 09:50:27;;;;;;;0.52;0.52;;;0.60;99.90;;;;;;4397312;32;20573;-60
2023/12/05 09:52:55;;;;;;;3.50;1.35;;;0.60;99.90;;;;;;4404570;32;20852;-58
2023/12/05 09:55:21;;;;;;;0.85;0.85;;;0.50;99.90;;;;;;4410511;32;20081;-59
2023/12/05 09:57:48;;;;;;;1.08;1.05;;;0.50;99.90;;;;;;4407441;32;20143;-60
2023/12/05 10:00:14;;;;;;;0.90;0.90;;;0.70;99.90;;;;;;4395850;32;20512;-59
2023/12/05 10:02:40;;;;;;;0.82;0.82;;;0.70;99.90;;;;;;4411823;32;20065;-57
2023/12/05 10:05:12;;;;;;;1.10;1.10;;;0.70;99.90;;;;;;4391583;32;21361;-60
2023/12/05 10:07:38;;;;;;;0.70;0.70;;;0.80;99.90;;;;;;4411360;32;20974;-60
2023/12/05 10:10:05;;;;;;;3.17;1.35;;;0.80;99.90;;;;;;4405584;32;20145;-59
2023/12/05 10:12:31;;;;;;;0.77;0.77;;;0.90;99.90;;;;;;4400662;32;20525;-59
2023/12/05 10:14:58;;;;;;;0.77;0.77;;;1.00;99.90;;;;;;4397612;32;20112;-59
2023/12/05 10:17:25;;;;;;;1.95;1.75;;;0.90;99.90;;;;;;4401340;32;20624;-59
2023/12/05 10:19:51;;;;;;;0.70;0.70;;;1.00;99.90;;;;;;4389385;32;20163;-58
2023/12/05 10:22:17;;;;;;;1.40;1.30;;;0.90;99.90;;;;;;4384557;32;20097;-57
2023/12/05 10:24:43;;;;;;;7.75;3.45;;;0.90;99.90;;;;;;4375342;32;20085;-58
2023/12/05 10:27:10;;;;;;;0.80;0.80;;;0.90;99.90;;;;;;4391607;32;20152;-57
2023/12/05 10:29:39;;;;;;;0.60;0.60;;;0.90;99.90;;;;;;4375179;32;20541;-59
2023/12/05 10:32:05;;;;;;;0.82;0.82;;;0.90;99.90;;;;;;4373792;32;20104;-58
2023/12/05 10:34:44;;;;;;;1.00;1.00;;;1.00;99.90;;;;;;4383272;32;20110;-58
2023/12/05 10:37:10;;;;;;;1.42;1.33;;;1.10;99.90;;;;;;4395457;32;20084;-58
2023/12/05 10:39:36;;;;;;;2.37;1.62;;;1.00;99.90;;;;;;4392210;32;20813;-60
2023/12/05 10:42:02;;;;;;;0.90;0.90;;;1.00;99.90;;;;;;4391037;32;21132;-57
2023/12/05 10:44:27;;;;;;;0.57;0.57;;;1.10;99.90;;;;;;4397381;32;20966;-58
2023/12/05 10:46:56;;;;;;;1.12;1.12;;;1.00;99.90;;;;;;4387162;32;20178;-57
2023/12/05 10:49:22;;;;;;;0.70;0.70;;;1.00;99.90;;;;;;4394056;32;21301;-59
2023/12/05 10:51:49;;;;;;;1.35;1.08;;;0.90;99.90;;;;;;4399161;32;20089;-57
2023/12/05 10:54:16;;;;;;;0.90;0.90;;;1.00;99.90;;;;;;4399652;32;20618;-57
2023/12/05 10:56:57;;;;;;;0.52;0.52;;;0.90;99.90;;;;;;4378320;32;20089;-58
2023/12/05 10:59:24;;;;;;;0.88;0.88;;;1.00;99.90;;;;;;4382220;32;20089;-56
2023/12/05 11:01:54;;;;;;;1.83;1.45;;;1.00;99.90;;;;;;4398431;32;20676;-58
2023/12/05 11:04:19;;;;;;;1.60;1.25;;;1.00;99.90;;;;;;4400822;32;20078;-60
2023/12/05 11:06:45;;;;;;;1.08;1.08;;;0.90;99.90;;;;;;4401512;32;20891;-58
2023/12/05 11:09:10;;;;;;;1.77;1.37;;;1.00;99.90;;;;;;4392697;32;20549;-59
2023/12/05 11:11:40;;;;;;;10.48;1.67;;;1.00;99.90;;;;;;4390846;32;20844;-59
2023/12/05 11:14:09;;;;;;;0.73;0.73;;;1.00;99.90;;;;;;4382425;32;20077;-61
2023/12/05 11:16:37;;;;;;;0.93;0.93;;;1.00;99.90;;;;;;4400952;32;20568;-61
2023/12/05 11:19:17;;;;;;;0.73;0.73;;;1.10;99.90;;;;;;4399613;32;20121;-60
2023/12/05 11:22:20;;;;;;;0.52;0.52;;;1.10;99.90;;;;;;4390128;32;20155;-62
2023/12/05 11:25:15;;;;;;;0.52;0.52;;;1.10;99.90;;;;;;4400339;32;20122;-58
2023/12/05 11:27:56;;;;;;;0.60;0.60;;;1.10;99.90;;;;;;4408577;32;20097;-57
2023/12/05 11:30:42;;;;;;;0.88;0.88;;;1.10;99.90;;;;;;4414613;32;20089;-59
2023/12/05 11:33:48;;;;;;;0.68;0.68;;;1.10;99.90;;;;;;4413717;32;20073;-58
2023/12/05 11:36:53;;;;;;;0.70;0.68;;;1.30;99.90;;;;;;4388947;32;20077;-58
2023/12/05 11:39:20;;;;;;;2.20;1.70;;;1.20;99.90;;;;;;4401642;32;20110;-59
2023/12/05 11:42:07;;;;;;;1.85;1.42;;;1.20;99.90;;;;;;4414757;32;20879;-59
2023/12/05 11:44:41;;;;;;;1.08;1.05;;;1.20;99.90;;;;;;4395317;32;20093;-59
2023/12/05 11:47:27;;;;;;;2.97;1.42;;;1.30;99.90;;;;;;4402685;32;20968;-57
2023/12/05 11:49:56;;;;;;;0.70;0.70;;;1.40;99.90;;;;;;4398569;32;85213;-59
2023/12/05 11:52:26;;;;;;;0.73;0.73;;;1.30;99.90;;;;;;4403444;32;20053;-59
2023/12/05 11:54:53;;;;;;;0.52;0.52;;;1.30;99.90;;;;;;4395366;32;20726;-57
2023/12/05 11:57:21;;;;;;;0.50;0.50;;;1.20;99.90;;;;;;4409814;32;20126;-57
2023/12/05 11:59:47;;;;;;;0.40;0.40;;;1.20;99.90;;;;;;4389368;32;20144;-60
2023/12/05 12:02:17;;;;;;;3.15;1.90;;;1.10;99.90;;;;;;4411037;32;20080;-59
2023/12/05 12:04:45;;;;;;;0.73;0.73;;;1.00;99.90;;;;;;4403752;32;20101;-59
2023/12/05 12:07:11;;;;;;;1.17;1.10;;;1.00;99.90;;;;;;4402578;32;20094;-56
2023/12/05 12:09:39;;;;;;;1.10;1.05;;;1.00;99.90;;;;;;4409913;32;20100;-58
2023/12/05 12:12:06;;;;;;;0.95;0.93;;;1.10;99.90;;;;;;4416837;32;20152;-58
2023/12/05 12:14:32;;;;;;;1.42;1.33;;;1.20;99.90;;;;;;4402312;32;20080;-57
2023/12/05 12:16:59;;;;;;;5.00;2.47;;;1.20;99.90;;;;;;4417242;32;20502;-59
2023/12/05 12:19:25;;;;;;;0.52;0.52;;;1.20;99.90;;;;;;4414733;32;20133;-59
2023/12/05 12:21:50;;;;;;;1.75;1.20;;;1.10;99.90;;;;;;4398069;32;20134;-60
2023/12/05 12:24:20;;;;;;;1.80;1.30;;;1.00;99.90;;;;;;4404360;32;20092;-59
2023/12/05 12:26:54;;;;;;;7.03;1.77;;;1.10;99.90;;;;;;4409146;32;20522;-59
2023/12/05 12:29:21;;;;;;;1.15;1.05;;;1.10;99.90;;;;;;4416119;32;20101;-60
2023/12/05 12:31:48;;;;;;;0.82;0.82;;;1.20;99.90;;;;;;4411703;32;20097;-60
2023/12/05 12:34:29;;;;;;;1.12;1.05;;;1.30;99.90;;;;;;4384392;32;21615;-59
2023/12/05 12:36:55;;;;;;;;;;;1.30;99.90;;;;;;4411700;32;20110;-60
2023/12/05 12:39:23;;;;;;;3.03;1.30;;;1.30;99.90;;;;;;4409863;32;19997;-58
2023/12/05 12:41:49;;;;;;;0.52;0.52;;;1.20;99.90;;;;;;4413398;32;20070;-60
2023/12/05 12:44:16;;;;;;;0.82;0.82;;;1.20;99.90;;;;;;4399914;32;20074;-59
2023/12/05 12:46:42;;;;;;;0.82;0.82;;;1.20;99.90;;;;;;4407405;32;20155;-58
2023/12/05 12:49:08;;;;;;;2.40;2.05;;;1.20;99.90;;;;;;4413594;32;20085;-59
2023/12/05 12:51:35;;;;;;;10.35;2.25;;;1.30;99.90;;;;;;4411548;32;20098;-60
2023/12/05 12:54:01;;;;;;;0.77;0.75;;;1.40;99.90;;;;;;4415540;32;20065;-60